sensor_id;sensor_type;location;lat;lon;timestamp;temperature;humidity
43151;DHT22;28755;51.478;5.702;2023-05-07T00:02:07;15.30;99.90
43151;DHT22;28755;51.478;5.702;2023-05-07T00:04:32;15.30;99.90
43151;DHT22;28755;51.478;5.702;2023-05-07T00:07:02;15.30;99.90
43151;DHT22;28755;51.478;5.702;2023-05-07T00:09:28;15.30;99.90
43151;DHT22;28755;51.478;5.702;2023-05-07T00:11:53;15.30;99.90
43151;DHT22;28755;51.478;5.702;2023-05-07T00:14:19;15.30;99.90
43151;DHT22;28755;51.478;5.702;2023-05-07T00:16:44;15.30;99.90
43151;DHT22;28755;51.478;5.702;2023-05-07T00:19:10;15.40;99.90
43151;DHT22;28755;51.478;5.702;2023-05-07T00:21:35;15.40;99.90
43151;DHT22;28755;51.478;5.702;2023-05-07T00:24:01;15.30;99.90
43151;DHT22;28755;51.478;5.702;2023-05-07T00:26:26;15.40;99.90
43151;DHT22;28755;51.478;5.702;2023-05-07T00:28:52;15.40;99.90
43151;DHT22;28755;51.478;5.702;2023-05-07T00:31:17;15.30;99.90
43151;DHT22;28755;51.478;5.702;2023-05-07T00:33:43;15.40;99.90
43151;DHT22;28755;51.478;5.702;2023-05-07T00:36:08;15.40;99.90
43151;DHT22;28755;51.478;5.702;2023-05-07T00:38:34;15.50;99.90
43151;DHT22;28755;51.478;5.702;2023-05-07T00:40:59;15.40;99.90
43151;DHT22;28755;51.478;5.702;2023-05-07T00:43:25;15.30;99.90
43151;DHT22;28755;51.478;5.702;2023-05-07T00:45:51;15.30;99.90
43151;DHT22;28755;51.478;5.702;2023-05-07T00:48:17;15.20;99.90
43151;DHT22;28755;51.478;5.702;2023-05-07T00:50:43;15.30;99.90
43151;DHT22;28755;51.478;5.702;2023-05-07T00:53:09;15.20;99.90
43151;DHT22;28755;51.478;5.702;2023-05-07T00:55:35;15.10;99.90
43151;DHT22;28755;51.478;5.702;2023-05-07T00:58:01;15.10;99.90
43151;DHT22;28755;51.478;5.702;2023-05-07T01:00:27;15.00;99.90
43151;DHT22;28755;51.478;5.702;2023-05-07T01:02:53;15.00;99.90
43151;DHT22;28755;51.478;5.702;2023-05-07T01:05:20;15.00;99.90
43151;DHT22;28755;51.478;5.702;2023-05-07T01:07:46;15.00;99.90
43151;DHT22;28755;51.478;5.702;2023-05-07T01:10:12;15.00;99.90
43151;DHT22;28755;51.478;5.702;2023-05-07T01:12:39;15.00;99.90
43151;DHT22;28755;51.478;5.702;2023-05-07T01:15:06;15.00;99.90
43151;DHT22;28755;51.478;5.702;2023-05-07T01:17:36;15.00;99.90
43151;DHT22;28755;51.478;5.702;2023-05-07T01:20:04;15.00;99.90
43151;DHT22;28755;51.478;5.702;2023-05-07T01:22:40;15.00;99.90
43151;DHT22;28755;51.478;5.702;2023-05-07T01:25:06;15.10;99.90
43151;DHT22;28755;51.478;5.702;2023-05-07T01:27:33;15.10;99.90
43151;DHT22;28755;51.478;5.702;2023-05-07T01:29:59;15.10;99.90
43151;DHT22;28755;51.478;5.702;2023-05-07T01:32:32;15.10;99.90
43151;DHT22;28755;51.478;5.702;2023-05-07T01:35:00;15.10;99.90
43151;DHT22;28755;51.478;5.702;2023-05-07T01:37:26;15.10;99.90
43151;DHT22;28755;51.478;5.702;2023-05-07T01:39:52;15.10;99.90
43151;DHT22;28755;51.478;5.702;2023-05-07T01:42:19;15.00;99.90
43151;DHT22;28755;51.478;5.702;2023-05-07T01:44:45;15.00;99.90
43151;DHT22;28755;51.478;5.702;2023-05-07T01:47:12;15.00;99.90
43151;DHT22;28755;51.478;5.702;2023-05-07T01:49:38;15.00;99.90
43151;DHT22;28755;51.478;5.702;2023-05-07T01:52:03;15.00;99.90
43151;DHT22;28755;51.478;5.702;2023-05-07T01:54:29;15.00;99.90
43151;DHT22;28755;51.478;5.702;2023-05-07T01:56:59;15.00;99.90
43151;DHT22;28755;51.478;5.702;2023-05-07T01:59:25;15.00;99.90
43151;DHT22;28755;51.478;5.702;2023-05-07T02:01:50;15.00;99.90
43151;DHT22;28755;51.478;5.702;2023-05-07T02:04:17;15.00;99.90
43151;DHT22;28755;51.478;5.702;2023-05-07T02:06:42;15.10;99.90
43151;DHT22;28755;51.478;5.702;2023-05-07T02:09:08;14.90;99.90
43151;DHT22;28755;51.478;5.702;2023-05-07T02:11:34;14.90;99.90
43151;DHT22;28755;51.478;5.702;2023-05-07T02:14:00;14.90;99.90
43151;DHT22;28755;51.478;5.702;2023-05-07T02:16:25;14.90;99.90
43151;DHT22;28755;51.478;5.702;2023-05-07T02:18:51;15.00;99.90
43151;DHT22;28755;51.478;5.702;2023-05-07T02:21:16;14.90;99.90
43151;DHT22;28755;51.478;5.702;2023-05-07T02:23:42;14.90;99.90
43151;DHT22;28755;51.478;5.702;2023-05-07T02:26:07;14.90;99.90
43151;DHT22;28755;51.478;5.702;2023-05-07T02:28:33;14.90;99.90
43151;DHT22;28755;51.478;5.702;2023-05-07T02:31:03;14.90;99.90
43151;DHT22;28755;51.478;5.702;2023-05-07T02:33:28;14.90;99.90
43151;DHT22;28755;51.478;5.702;2023-05-07T02:35:54;14.90;99.90
43151;DHT22;28755;51.478;5.702;2023-05-07T02:38:19;14.90;99.90
43151;DHT22;28755;51.478;5.702;2023-05-07T02:40:45;15.00;99.90
43151;DHT22;28755;51.478;5.702;2023-05-07T02:43:11;14.90;99.90
43151;DHT22;28755;51.478;5.702;2023-05-07T02:45:36;14.90;99.90
43151;DHT22;28755;51.478;5.702;2023-05-07T02:48:03;14.90;99.90
43151;DHT22;28755;51.478;5.702;2023-05-07T02:50:29;14.90;99.90
43151;DHT22;28755;51.478;5.702;2023-05-07T02:52:55;15.00;99.90
43151;DHT22;28755;51.478;5.702;2023-05-07T02:55:20;14.90;99.90
43151;DHT22;28755;51.478;5.702;2023-05-07T02:57:46;14.90;99.90
43151;DHT22;28755;51.478;5.702;2023-05-07T03:00:19;14.90;99.90
43151;DHT22;28755;51.478;5.702;2023-05-07T03:02:45;15.00;99.90
43151;DHT22;28755;51.478;5.702;2023-05-07T03:05:11;15.00;99.90
43151;DHT22;28755;51.478;5.702;2023-05-07T03:07:38;15.00;99.90
43151;DHT22;28755;51.478;5.702;2023-05-07T03:10:04;14.90;99.90
43151;DHT22;28755;51.478;5.702;2023-05-07T03:12:30;14.90;99.90
43151;DHT22;28755;51.478;5.702;2023-05-07T03:14:56;15.00;99.90
43151;DHT22;28755;51.478;5.702;2023-05-07T03:17:22;14.90;99.90
43151;DHT22;28755;51.478;5.702;2023-05-07T03:19:48;14.90;99.90
43151;DHT22;28755;51.478;5.702;2023-05-07T03:22:14;14.90;99.90
43151;DHT22;28755;51.478;5.702;2023-05-07T03:24:39;14.90;99.90
43151;DHT22;28755;51.478;5.702;2023-05-07T03:27:05;15.00;99.90
43151;DHT22;28755;51.478;5.702;2023-05-07T03:29:30;14.90;99.90
43151;DHT22;28755;51.478;5.702;2023-05-07T03:31:56;14.90;99.90
43151;DHT22;28755;51.478;5.702;2023-05-07T03:34:21;14.90;99.90
43151;DHT22;28755;51.478;5.702;2023-05-07T03:36:50;14.80;99.90
43151;DHT22;28755;51.478;5.702;2023-05-07T03:39:16;14.90;99.90
43151;DHT22;28755;51.478;5.702;2023-05-07T03:41:42;14.80;99.90
43151;DHT22;28755;51.478;5.702;2023-05-07T03:44:07;14.80;99.90
43151;DHT22;28755;51.478;5.702;2023-05-07T03:46:33;14.90;99.90
43151;DHT22;28755;51.478;5.702;2023-05-07T03:48:59;14.90;99.90
43151;DHT22;28755;51.478;5.702;2023-05-07T03:51:25;14.80;99.90
43151;DHT22;28755;51.478;5.702;2023-05-07T03:53:51;14.90;99.90
43151;DHT22;28755;51.478;5.702;2023-05-07T03:56:18;14.80;99.90
43151;DHT22;28755;51.478;5.702;2023-05-07T03:58:44;14.80;99.90
43151;DHT22;28755;51.478;5.702;2023-05-07T04:01:10;14.80;99.90
43151;DHT22;28755;51.478;5.702;2023-05-07T04:03:36;14.80;99.90
43151;DHT22;28755;51.478;5.702;2023-05-07T04:06:01;14.80;99.90
43151;DHT22;28755;51.478;5.702;2023-05-07T04:08:27;14.70;99.90
43151;DHT22;28755;51.478;5.702;2023-05-07T04:10:56;14.70;99.90
43151;DHT22;28755;51.478;5.702;2023-05-07T04:13:22;14.70;99.90
43151;DHT22;28755;51.478;5.702;2023-05-07T04:15:48;14.80;99.90
43151;DHT22;28755;51.478;5.702;2023-05-07T04:18:14;14.80;99.90
43151;DHT22;28755;51.478;5.702;2023-05-07T04:20:40;14.80;99.90
43151;DHT22;28755;51.478;5.702;2023-05-07T04:23:06;14.80;99.90
43151;DHT22;28755;51.478;5.702;2023-05-07T04:25:32;14.80;99.90
43151;DHT22;28755;51.478;5.702;2023-05-07T04:27:58;14.80;99.90
43151;DHT22;28755;51.478;5.702;2023-05-07T04:30:24;14.90;99.90
43151;DHT22;28755;51.478;5.702;2023-05-07T04:32:49;14.90;99.90
43151;DHT22;28755;51.478;5.702;2023-05-07T04:35:15;14.90;99.90
43151;DHT22;28755;51.478;5.702;2023-05-07T04:37:40;14.90;99.90
43151;DHT22;28755;51.478;5.702;2023-05-07T04:40:06;15.00;99.90
43151;DHT22;28755;51.478;5.702;2023-05-07T04:42:32;15.00;99.90
43151;DHT22;28755;51.478;5.702;2023-05-07T04:44:58;15.00;99.90
43151;DHT22;28755;51.478;5.702;2023-05-07T04:47:23;15.10;99.90
43151;DHT22;28755;51.478;5.702;2023-05-07T04:49:49;15.10;99.90
43151;DHT22;28755;51.478;5.702;2023-05-07T04:52:15;15.10;99.90
43151;DHT22;28755;51.478;5.702;2023-05-07T04:54:40;15.10;99.90
43151;DHT22;28755;51.478;5.702;2023-05-07T04:57:06;15.20;99.90
43151;DHT22;28755;51.478;5.702;2023-05-07T04:59:32;15.20;99.90
43151;DHT22;28755;51.478;5.702;2023-05-07T05:01:58;15.30;99.90
43151;DHT22;28755;51.478;5.702;2023-05-07T05:04:24;15.40;99.90
43151;DHT22;28755;51.478;5.702;2023-05-07T05:06:49;15.50;99.90
43151;DHT22;28755;51.478;5.702;2023-05-07T05:09:15;15.50;99.90
43151;DHT22;28755;51.478;5.702;2023-05-07T05:11:41;15.60;99.90
43151;DHT22;28755;51.478;5.702;2023-05-07T05:14:07;15.60;99.90
43151;DHT22;28755;51.478;5.702;2023-05-07T05:16:32;15.60;99.90
43151;DHT22;28755;51.478;5.702;2023-05-07T05:18:58;15.70;99.90
43151;DHT22;28755;51.478;5.702;2023-05-07T05:21:24;15.70;99.90
43151;DHT22;28755;51.478;5.702;2023-05-07T05:23:49;15.70;99.90
43151;DHT22;28755;51.478;5.702;2023-05-07T05:26:15;15.70;99.90
43151;DHT22;28755;51.478;5.702;2023-05-07T05:28:40;15.70;99.90
43151;DHT22;28755;51.478;5.702;2023-05-07T05:31:06;15.70;99.90
43151;DHT22;28755;51.478;5.702;2023-05-07T05:33:31;15.80;99.90
43151;DHT22;28755;51.478;5.702;2023-05-07T05:35:57;15.80;99.90
43151;DHT22;28755;51.478;5.702;2023-05-07T05:38:23;15.90;99.90
43151;DHT22;28755;51.478;5.702;2023-05-07T05:40:48;15.80;99.90
43151;DHT22;28755;51.478;5.702;2023-05-07T05:43:14;15.80;99.90
43151;DHT22;28755;51.478;5.702;2023-05-07T05:45:41;15.90;99.90
43151;DHT22;28755;51.478;5.702;2023-05-07T05:48:06;15.90;99.90
43151;DHT22;28755;51.478;5.702;2023-05-07T05:50:33;16.00;99.90
43151;DHT22;28755;51.478;5.702;2023-05-07T05:53:01;16.00;99.90
43151;DHT22;28755;51.478;5.702;2023-05-07T05:55:26;16.00;99.90
43151;DHT22;28755;51.478;5.702;2023-05-07T05:57:52;16.10;99.90
43151;DHT22;28755;51.478;5.702;2023-05-07T06:00:18;16.20;99.90
43151;DHT22;28755;51.478;5.702;2023-05-07T06:02:44;16.40;99.90
43151;DHT22;28755;51.478;5.702;2023-05-07T06:05:09;16.40;99.90
43151;DHT22;28755;51.478;5.702;2023-05-07T06:07:35;16.40;99.90
43151;DHT22;28755;51.478;5.702;2023-05-07T06:10:01;16.40;99.90
43151;DHT22;28755;51.478;5.702;2023-05-07T06:12:26;16.50;99.90
43151;DHT22;28755;51.478;5.702;2023-05-07T06:14:52;16.40;99.90
43151;DHT22;28755;51.478;5.702;2023-05-07T06:17:17;16.60;99.90
43151;DHT22;28755;51.478;5.702;2023-05-07T06:19:43;16.70;99.90
43151;DHT22;28755;51.478;5.702;2023-05-07T06:22:09;16.70;99.90
43151;DHT22;28755;51.478;5.702;2023-05-07T06:24:34;16.90;99.90
43151;DHT22;28755;51.478;5.702;2023-05-07T06:27:00;17.00;99.90
43151;DHT22;28755;51.478;5.702;2023-05-07T06:29:25;17.10;99.90
43151;DHT22;28755;51.478;5.702;2023-05-07T06:31:54;17.20;99.90
43151;DHT22;28755;51.478;5.702;2023-05-07T06:34:19;17.30;99.90
43151;DHT22;28755;51.478;5.702;2023-05-07T06:36:45;17.40;99.90
43151;DHT22;28755;51.478;5.702;2023-05-07T06:39:11;17.60;99.90
43151;DHT22;28755;51.478;5.702;2023-05-07T06:41:36;17.60;99.90
43151;DHT22;28755;51.478;5.702;2023-05-07T06:44:02;17.80;99.90
43151;DHT22;28755;51.478;5.702;2023-05-07T06:46:28;17.80;99.90
43151;DHT22;28755;51.478;5.702;2023-05-07T06:48:54;17.70;99.90
43151;DHT22;28755;51.478;5.702;2023-05-07T06:51:20;17.70;99.90
43151;DHT22;28755;51.478;5.702;2023-05-07T06:53:45;17.90;99.90
43151;DHT22;28755;51.478;5.702;2023-05-07T06:56:11;17.80;99.90
43151;DHT22;28755;51.478;5.702;2023-05-07T06:58:37;17.90;99.90
43151;DHT22;28755;51.478;5.702;2023-05-07T07:01:02;17.90;99.90
43151;DHT22;28755;51.478;5.702;2023-05-07T07:03:28;18.00;99.90
43151;DHT22;28755;51.478;5.702;2023-05-07T07:05:54;18.10;99.90
43151;DHT22;28755;51.478;5.702;2023-05-07T07:08:20;18.10;99.90
43151;DHT22;28755;51.478;5.702;2023-05-07T07:10:48;18.10;99.90
43151;DHT22;28755;51.478;5.702;2023-05-07T07:13:14;18.00;99.90
43151;DHT22;28755;51.478;5.702;2023-05-07T07:15:40;18.20;99.90
43151;DHT22;28755;51.478;5.702;2023-05-07T07:18:06;18.20;99.90
43151;DHT22;28755;51.478;5.702;2023-05-07T07:20:32;18.20;99.90
43151;DHT22;28755;51.478;5.702;2023-05-07T07:22:57;18.30;99.90
43151;DHT22;28755;51.478;5.702;2023-05-07T07:25:23;18.40;99.90
43151;DHT22;28755;51.478;5.702;2023-05-07T07:27:49;18.50;99.90
43151;DHT22;28755;51.478;5.702;2023-05-07T07:30:15;18.60;99.90
43151;DHT22;28755;51.478;5.702;2023-05-07T07:32:41;18.60;99.90
43151;DHT22;28755;51.478;5.702;2023-05-07T07:35:07;18.70;99.90
43151;DHT22;28755;51.478;5.702;2023-05-07T07:37:32;18.70;99.90
43151;DHT22;28755;51.478;5.702;2023-05-07T07:39:58;18.60;99.90
43151;DHT22;28755;51.478;5.702;2023-05-07T07:42:23;18.50;99.90
43151;DHT22;28755;51.478;5.702;2023-05-07T07:44:49;18.50;99.90
43151;DHT22;28755;51.478;5.702;2023-05-07T07:47:15;18.60;99.90
43151;DHT22;28755;51.478;5.702;2023-05-07T07:49:40;18.60;99.90
43151;DHT22;28755;51.478;5.702;2023-05-07T07:52:06;18.50;99.90
43151;DHT22;28755;51.478;5.702;2023-05-07T07:54:32;18.60;99.90
43151;DHT22;28755;51.478;5.702;2023-05-07T07:56:57;18.70;99.90
43151;DHT22;28755;51.478;5.702;2023-05-07T07:59:23;18.80;99.90
43151;DHT22;28755;51.478;5.702;2023-05-07T08:01:49;18.90;99.90
43151;DHT22;28755;51.478;5.702;2023-05-07T08:04:15;18.90;99.90
43151;DHT22;28755;51.478;5.702;2023-05-07T08:06:41;19.10;99.90
43151;DHT22;28755;51.478;5.702;2023-05-07T08:09:07;19.20;99.90
43151;DHT22;28755;51.478;5.702;2023-05-07T08:11:33;19.30;99.90
43151;DHT22;28755;51.478;5.702;2023-05-07T08:13:59;19.40;99.90
43151;DHT22;28755;51.478;5.702;2023-05-07T08:16:24;19.70;99.90
43151;DHT22;28755;51.478;5.702;2023-05-07T08:18:50;19.60;99.90
43151;DHT22;28755;51.478;5.702;2023-05-07T08:21:16;19.70;99.90
43151;DHT22;28755;51.478;5.702;2023-05-07T08:23:41;19.90;99.90
43151;DHT22;28755;51.478;5.702;2023-05-07T08:26:08;20.30;99.90
43151;DHT22;28755;51.478;5.702;2023-05-07T08:28:33;20.60;99.90
43151;DHT22;28755;51.478;5.702;2023-05-07T08:30:59;21.00;99.90
43151;DHT22;28755;51.478;5.702;2023-05-07T08:33:27;20.90;99.90
43151;DHT22;28755;51.478;5.702;2023-05-07T08:35:53;21.00;99.90
43151;DHT22;28755;51.478;5.702;2023-05-07T08:38:18;20.90;99.90
43151;DHT22;28755;51.478;5.702;2023-05-07T08:40:44;20.80;99.90
43151;DHT22;28755;51.478;5.702;2023-05-07T08:43:13;20.60;99.90
43151;DHT22;28755;51.478;5.702;2023-05-07T08:45:40;20.60;99.90
43151;DHT22;28755;51.478;5.702;2023-05-07T08:48:10;20.50;99.90
43151;DHT22;28755;51.478;5.702;2023-05-07T08:50:39;20.70;99.90
43151;DHT22;28755;51.478;5.702;2023-05-07T08:53:05;20.90;99.90
43151;DHT22;28755;51.478;5.702;2023-05-07T08:55:31;20.90;99.90
43151;DHT22;28755;51.478;5.702;2023-05-07T08:57:56;21.00;99.90
43151;DHT22;28755;51.478;5.702;2023-05-07T09:00:22;20.80;99.90
43151;DHT22;28755;51.478;5.702;2023-05-07T09:02:48;21.00;99.90
43151;DHT22;28755;51.478;5.702;2023-05-07T09:05:13;21.00;99.90
43151;DHT22;28755;51.478;5.702;2023-05-07T09:07:39;20.90;99.90
43151;DHT22;28755;51.478;5.702;2023-05-07T09:10:05;21.10;99.90
43151;DHT22;28755;51.478;5.702;2023-05-07T09:12:31;21.20;99.90
43151;DHT22;28755;51.478;5.702;2023-05-07T09:14:58;21.20;99.90
43151;DHT22;28755;51.478;5.702;2023-05-07T09:17:24;21.30;99.90
43151;DHT22;28755;51.478;5.702;2023-05-07T09:19:50;21.20;99.90
43151;DHT22;28755;51.478;5.702;2023-05-07T09:22:16;21.40;99.90
43151;DHT22;28755;51.478;5.702;2023-05-07T09:24:47;21.50;99.90
43151;DHT22;28755;51.478;5.702;2023-05-07T09:27:13;21.50;99.90
43151;DHT22;28755;51.478;5.702;2023-05-07T09:29:39;21.50;99.90
43151;DHT22;28755;51.478;5.702;2023-05-07T09:32:06;21.60;99.90
43151;DHT22;28755;51.478;5.702;2023-05-07T09:34:32;21.90;99.90
43151;DHT22;28755;51.478;5.702;2023-05-07T09:37:05;21.90;99.90
43151;DHT22;28755;51.478;5.702;2023-05-07T09:42:09;22.10;99.90
43151;DHT22;28755;51.478;5.702;2023-05-07T09:44:37;22.60;99.90
43151;DHT22;28755;51.478;5.702;2023-05-07T09:47:05;22.90;99.90
43151;DHT22;28755;51.478;5.702;2023-05-07T09:49:34;23.20;99.90
43151;DHT22;28755;51.478;5.702;2023-05-07T09:52:01;23.30;99.90
43151;DHT22;28755;51.478;5.702;2023-05-07T09:54:28;23.50;99.90
43151;DHT22;28755;51.478;5.702;2023-05-07T09:56:54;23.50;99.90
43151;DHT22;28755;51.478;5.702;2023-05-07T09:59:21;23.80;99.90
43151;DHT22;28755;51.478;5.702;2023-05-07T10:01:48;23.70;99.90
43151;DHT22;28755;51.478;5.702;2023-05-07T10:04:14;23.60;99.90
43151;DHT22;28755;51.478;5.702;2023-05-07T10:06:40;23.90;99.90
43151;DHT22;28755;51.478;5.702;2023-05-07T10:09:07;24.00;99.90
43151;DHT22;28755;51.478;5.702;2023-05-07T10:11:33;23.70;99.90
43151;DHT22;28755;51.478;5.702;2023-05-07T10:14:00;23.80;99.90
43151;DHT22;28755;51.478;5.702;2023-05-07T10:16:31;23.70;99.90
43151;DHT22;28755;51.478;5.702;2023-05-07T10:18:58;23.90;99.90
43151;DHT22;28755;51.478;5.702;2023-05-07T10:21:26;23.90;99.90
43151;DHT22;28755;51.478;5.702;2023-05-07T10:24:03;24.00;99.90
43151;DHT22;28755;51.478;5.702;2023-05-07T10:26:32;24.00;99.90
43151;DHT22;28755;51.478;5.702;2023-05-07T10:29:04;24.00;99.90
43151;DHT22;28755;51.478;5.702;2023-05-07T10:31:52;24.50;99.90
43151;DHT22;28755;51.478;5.702;2023-05-07T10:34:26;24.40;99.90
43151;DHT22;28755;51.478;5.702;2023-05-07T10:36:53;24.80;99.90
43151;DHT22;28755;51.478;5.702;2023-05-07T10:39:21;25.20;99.90
43151;DHT22;28755;51.478;5.702;2023-05-07T10:41:47;25.40;99.90
43151;DHT22;28755;51.478;5.702;2023-05-07T10:44:28;25.40;99.90
43151;DHT22;28755;51.478;5.702;2023-05-07T10:47:10;25.40;99.90
43151;DHT22;28755;51.478;5.702;2023-05-07T10:52:19;25.80;99.90
43151;DHT22;28755;51.478;5.702;2023-05-07T10:54:45;26.10;99.90
43151;DHT22;28755;51.478;5.702;2023-05-07T10:57:33;25.80;99.90
43151;DHT22;28755;51.478;5.702;2023-05-07T11:00:01;25.80;99.90
43151;DHT22;28755;51.478;5.702;2023-05-07T11:05:31;26.70;99.90
43151;DHT22;28755;51.478;5.702;2023-05-07T11:08:00;26.90;99.90
43151;DHT22;28755;51.478;5.702;2023-05-07T11:13:17;26.90;99.90
43151;DHT22;28755;51.478;5.702;2023-05-07T11:15:47;26.30;99.90
43151;DHT22;28755;51.478;5.702;2023-05-07T11:18:15;26.20;99.90
43151;DHT22;28755;51.478;5.702;2023-05-07T11:26:14;24.70;99.90
43151;DHT22;28755;51.478;5.702;2023-05-07T11:28:42;24.50;99.90
43151;DHT22;28755;51.478;5.702;2023-05-07T11:31:09;24.30;99.90
43151;DHT22;28755;51.478;5.702;2023-05-07T11:33:35;24.20;99.90
43151;DHT22;28755;51.478;5.702;2023-05-07T11:36:04;24.00;99.90
43151;DHT22;28755;51.478;5.702;2023-05-07T11:38:30;23.80;99.90
43151;DHT22;28755;51.478;5.702;2023-05-07T11:40:59;23.70;99.90
43151;DHT22;28755;51.478;5.702;2023-05-07T11:43:30;23.90;99.90
43151;DHT22;28755;51.478;5.702;2023-05-07T11:46:08;24.10;99.90
43151;DHT22;28755;51.478;5.702;2023-05-07T11:48:34;24.40;99.90
43151;DHT22;28755;51.478;5.702;2023-05-07T11:51:06;24.40;99.90
43151;DHT22;28755;51.478;5.702;2023-05-07T11:53:39;24.40;99.90
43151;DHT22;28755;51.478;5.702;2023-05-07T11:56:13;24.40;99.90
43151;DHT22;28755;51.478;5.702;2023-05-07T11:58:39;24.30;99.90
43151;DHT22;28755;51.478;5.702;2023-05-07T12:01:08;24.10;99.90
43151;DHT22;28755;51.478;5.702;2023-05-07T12:03:35;23.90;99.90
43151;DHT22;28755;51.478;5.702;2023-05-07T12:06:02;23.70;99.90
43151;DHT22;28755;51.478;5.702;2023-05-07T12:08:28;23.60;99.90
43151;DHT22;28755;51.478;5.702;2023-05-07T12:10:55;23.60;99.90
43151;DHT22;28755;51.478;5.702;2023-05-07T12:13:22;23.30;99.90
43151;DHT22;28755;51.478;5.702;2023-05-07T12:15:52;23.50;99.90
43151;DHT22;28755;51.478;5.702;2023-05-07T12:18:17;23.60;99.90
43151;DHT22;28755;51.478;5.702;2023-05-07T12:20:44;23.70;99.90
43151;DHT22;28755;51.478;5.702;2023-05-07T12:23:10;23.70;99.90
43151;DHT22;28755;51.478;5.702;2023-05-07T12:25:40;23.70;99.90
43151;DHT22;28755;51.478;5.702;2023-05-07T12:28:13;23.70;99.90
43151;DHT22;28755;51.478;5.702;2023-05-07T12:30:40;23.70;99.90
43151;DHT22;28755;51.478;5.702;2023-05-07T12:33:07;23.70;99.90
43151;DHT22;28755;51.478;5.702;2023-05-07T12:35:38;23.60;99.90
43151;DHT22;28755;51.478;5.702;2023-05-07T12:38:08;23.50;99.90
43151;DHT22;28755;51.478;5.702;2023-05-07T12:43:05;23.00;99.90
43151;DHT22;28755;51.478;5.702;2023-05-07T12:45:31;22.80;99.90
43151;DHT22;28755;51.478;5.702;2023-05-07T12:48:01;22.80;99.90
43151;DHT22;28755;51.478;5.702;2023-05-07T12:50:31;22.80;99.90
43151;DHT22;28755;51.478;5.702;2023-05-07T12:52:57;22.70;99.90
43151;DHT22;28755;51.478;5.702;2023-05-07T12:55:22;22.50;99.90
43151;DHT22;28755;51.478;5.702;2023-05-07T12:57:49;22.40;99.90
43151;DHT22;28755;51.478;5.702;2023-05-07T13:00:16;22.30;99.90
43151;DHT22;28755;51.478;5.702;2023-05-07T13:02:43;22.20;99.90
43151;DHT22;28755;51.478;5.702;2023-05-07T13:05:10;22.00;99.90
43151;DHT22;28755;51.478;5.702;2023-05-07T13:07:36;21.80;99.90
43151;DHT22;28755;51.478;5.702;2023-05-07T13:10:03;21.00;99.90
43151;DHT22;28755;51.478;5.702;2023-05-07T13:12:28;20.20;99.90
43151;DHT22;28755;51.478;5.702;2023-05-07T13:14:54;19.60;99.90
43151;DHT22;28755;51.478;5.702;2023-05-07T13:17:19;19.20;99.90
43151;DHT22;28755;51.478;5.702;2023-05-07T13:19:45;19.00;99.90
43151;DHT22;28755;51.478;5.702;2023-05-07T13:22:10;18.90;99.90
43151;DHT22;28755;51.478;5.702;2023-05-07T13:24:36;18.80;99.90
43151;DHT22;28755;51.478;5.702;2023-05-07T13:27:02;18.40;99.90
43151;DHT22;28755;51.478;5.702;2023-05-07T13:29:28;18.10;99.90
43151;DHT22;28755;51.478;5.702;2023-05-07T13:31:56;17.90;99.90
43151;DHT22;28755;51.478;5.702;2023-05-07T13:34:22;17.40;99.90
43151;DHT22;28755;51.478;5.702;2023-05-07T13:36:48;17.30;99.90
43151;DHT22;28755;51.478;5.702;2023-05-07T13:39:13;17.10;99.90
43151;DHT22;28755;51.478;5.702;2023-05-07T13:41:39;17.10;99.90
43151;DHT22;28755;51.478;5.702;2023-05-07T13:44:05;17.00;99.90
43151;DHT22;28755;51.478;5.702;2023-05-07T13:46:30;16.90;99.90
43151;DHT22;28755;51.478;5.702;2023-05-07T13:48:56;17.00;99.90
43151;DHT22;28755;51.478;5.702;2023-05-07T13:51:22;17.00;99.90
43151;DHT22;28755;51.478;5.702;2023-05-07T13:53:47;17.00;99.90
43151;DHT22;28755;51.478;5.702;2023-05-07T13:56:13;17.10;99.90
43151;DHT22;28755;51.478;5.702;2023-05-07T13:58:39;17.20;99.90
43151;DHT22;28755;51.478;5.702;2023-05-07T14:01:05;17.20;99.90
43151;DHT22;28755;51.478;5.702;2023-05-07T14:03:31;17.20;99.90
43151;DHT22;28755;51.478;5.702;2023-05-07T14:05:59;17.30;99.90
43151;DHT22;28755;51.478;5.702;2023-05-07T14:08:25;17.40;99.90
43151;DHT22;28755;51.478;5.702;2023-05-07T14:10:51;17.30;99.90
43151;DHT22;28755;51.478;5.702;2023-05-07T14:13:17;17.30;99.90
43151;DHT22;28755;51.478;5.702;2023-05-07T14:15:42;17.40;99.90
43151;DHT22;28755;51.478;5.702;2023-05-07T14:18:12;17.50;99.90
43151;DHT22;28755;51.478;5.702;2023-05-07T14:20:37;17.50;99.90
43151;DHT22;28755;51.478;5.702;2023-05-07T14:23:03;17.50;99.90
43151;DHT22;28755;51.478;5.702;2023-05-07T14:25:29;17.50;99.90
43151;DHT22;28755;51.478;5.702;2023-05-07T14:27:54;17.60;99.90
43151;DHT22;28755;51.478;5.702;2023-05-07T14:30:20;17.70;99.90
43151;DHT22;28755;51.478;5.702;2023-05-07T14:32:47;17.80;99.90
43151;DHT22;28755;51.478;5.702;2023-05-07T14:35:13;17.80;99.90
43151;DHT22;28755;51.478;5.702;2023-05-07T14:37:38;17.80;99.90
43151;DHT22;28755;51.478;5.702;2023-05-07T14:40:04;17.80;99.90
43151;DHT22;28755;51.478;5.702;2023-05-07T14:42:30;17.90;99.90
43151;DHT22;28755;51.478;5.702;2023-05-07T14:44:55;17.90;99.90
43151;DHT22;28755;51.478;5.702;2023-05-07T14:47:21;18.00;99.90
43151;DHT22;28755;51.478;5.702;2023-05-07T14:49:47;18.00;99.90
43151;DHT22;28755;51.478;5.702;2023-05-07T14:52:12;18.20;99.90
43151;DHT22;28755;51.478;5.702;2023-05-07T14:54:38;18.40;99.90
43151;DHT22;28755;51.478;5.702;2023-05-07T14:57:05;18.50;99.90
43151;DHT22;28755;51.478;5.702;2023-05-07T14:59:31;18.50;99.90
43151;DHT22;28755;51.478;5.702;2023-05-07T15:01:57;18.70;99.90
43151;DHT22;28755;51.478;5.702;2023-05-07T15:04:24;18.70;99.90
43151;DHT22;28755;51.478;5.702;2023-05-07T15:06:49;18.80;99.90
43151;DHT22;28755;51.478;5.702;2023-05-07T15:09:15;18.90;99.90
43151;DHT22;28755;51.478;5.702;2023-05-07T15:11:41;18.80;99.90
43151;DHT22;28755;51.478;5.702;2023-05-07T15:14:06;18.70;99.90
43151;DHT22;28755;51.478;5.702;2023-05-07T15:16:32;18.50;99.90
43151;DHT22;28755;51.478;5.702;2023-05-07T15:18:59;18.60;99.90
43151;DHT22;28755;51.478;5.702;2023-05-07T15:21:24;18.70;99.90
43151;DHT22;28755;51.478;5.702;2023-05-07T15:23:51;18.50;99.90
43151;DHT22;28755;51.478;5.702;2023-05-07T15:26:17;18.40;99.90
43151;DHT22;28755;51.478;5.702;2023-05-07T15:28:43;18.50;99.90
43151;DHT22;28755;51.478;5.702;2023-05-07T15:31:08;18.50;99.90
43151;DHT22;28755;51.478;5.702;2023-05-07T15:33:34;18.50;99.90
43151;DHT22;28755;51.478;5.702;2023-05-07T15:36:00;18.40;99.90
43151;DHT22;28755;51.478;5.702;2023-05-07T15:38:26;18.50;99.90
43151;DHT22;28755;51.478;5.702;2023-05-07T15:40:52;18.20;99.90
43151;DHT22;28755;51.478;5.702;2023-05-07T15:43:18;18.30;99.90
43151;DHT22;28755;51.478;5.702;2023-05-07T15:45:43;18.40;99.90